sensor_id;sensor_type;location;lat;lon;timestamp;P1;durP1;ratioP1;P2;durP2;ratioP2
40621;SDS011;26324;52.040;11.528;2023-07-20T00:00:53;6.00;;;2.28;;
40621;SDS011;26324;52.040;11.528;2023-07-20T00:03:21;4.82;;;2.30;;
40621;SDS011;26324;52.040;11.528;2023-07-20T00:05:52;5.05;;;2.13;;
40621;SDS011;26324;52.040;11.528;2023-07-20T00:08:19;6.05;;;1.80;;
40621;SDS011;26324;52.040;11.528;2023-07-20T00:10:46;3.70;;;2.13;;
40621;SDS011;26324;52.040;11.528;2023-07-20T00:13:14;2.97;;;1.80;;
40621;SDS011;26324;52.040;11.528;2023-07-20T00:15:42;3.97;;;1.60;;
40621;SDS011;26324;52.040;11.528;2023-07-20T00:18:10;6.55;;;2.30;;
40621;SDS011;26324;52.040;11.528;2023-07-20T00:20:37;6.10;;;1.92;;
40621;SDS011;26324;52.040;11.528;2023-07-20T00:23:05;5.03;;;2.13;;
40621;SDS011;26324;52.040;11.528;2023-07-20T00:25:32;8.25;;;2.22;;
40621;SDS011;26324;52.040;11.528;2023-07-20T00:28:00;2.38;;;1.77;;
40621;SDS011;26324;52.040;11.528;2023-07-20T00:30:28;5.43;;;2.33;;
40621;SDS011;26324;52.040;11.528;2023-07-20T00:32:55;5.63;;;2.42;;
40621;SDS011;26324;52.040;11.528;2023-07-20T00:35:23;4.50;;;1.70;;
40621;SDS011;26324;52.040;11.528;2023-07-20T00:37:50;6.80;;;1.73;;
40621;SDS011;26324;52.040;11.528;2023-07-20T00:40:17;3.67;;;1.27;;
40621;SDS011;26324;52.040;11.528;2023-07-20T00:42:44;5.38;;;1.60;;
40621;SDS011;26324;52.040;11.528;2023-07-20T00:45:12;4.72;;;1.60;;
40621;SDS011;26324;52.040;11.528;2023-07-20T00:47:39;3.83;;;1.48;;
40621;SDS011;26324;52.040;11.528;2023-07-20T00:50:09;7.95;;;2.33;;
40621;SDS011;26324;52.040;11.528;2023-07-20T00:52:37;2.85;;;1.80;;
40621;SDS011;26324;52.040;11.528;2023-07-20T00:55:08;4.35;;;1.83;;
40621;SDS011;26324;52.040;11.528;2023-07-20T00:57:36;5.07;;;1.60;;
40621;SDS011;26324;52.040;11.528;2023-07-20T01:00:06;3.20;;;1.80;;
40621;SDS011;26324;52.040;11.528;2023-07-20T01:02:34;4.43;;;1.73;;
40621;SDS011;26324;52.040;11.528;2023-07-20T01:05:01;5.43;;;1.92;;
40621;SDS011;26324;52.040;11.528;2023-07-20T01:12:56;3.97;;;2.08;;
40621;SDS011;26324;52.040;11.528;2023-07-20T01:15:24;6.05;;;1.98;;
40621;SDS011;26324;52.040;11.528;2023-07-20T01:17:52;4.28;;;1.67;;
40621;SDS011;26324;52.040;11.528;2023-07-20T01:28:28;6.07;;;1.63;;
40621;SDS011;26324;52.040;11.528;2023-07-20T01:31:21;4.53;;;1.42;;
40621;SDS011;26324;52.040;11.528;2023-07-20T01:34:01;5.18;;;1.70;;
40621;SDS011;26324;52.040;11.528;2023-07-20T01:36:33;6.32;;;1.65;;
40621;SDS011;26324;52.040;11.528;2023-07-20T01:39:03;6.43;;;1.50;;
40621;SDS011;26324;52.040;11.528;2023-07-20T01:41:34;4.38;;;1.75;;
40621;SDS011;26324;52.040;11.528;2023-07-20T01:44:03;4.50;;;1.88;;
40621;SDS011;26324;52.040;11.528;2023-07-20T01:46:31;6.72;;;1.50;;
40621;SDS011;26324;52.040;11.528;2023-07-20T01:48:59;8.00;;;2.00;;
40621;SDS011;26324;52.040;11.528;2023-07-20T01:51:27;6.80;;;1.70;;
40621;SDS011;26324;52.040;11.528;2023-07-20T01:53:54;3.65;;;1.45;;
40621;SDS011;26324;52.040;11.528;2023-07-20T01:56:22;7.38;;;1.60;;
40621;SDS011;26324;52.040;11.528;2023-07-20T01:58:49;3.10;;;1.77;;
40621;SDS011;26324;52.040;11.528;2023-07-20T02:01:17;5.65;;;1.70;;
40621;SDS011;26324;52.040;11.528;2023-07-20T02:03:44;8.40;;;1.98;;
40621;SDS011;26324;52.040;11.528;2023-07-20T02:06:14;7.32;;;1.90;;
40621;SDS011;26324;52.040;11.528;2023-07-20T02:08:41;11.63;;;2.10;;
40621;SDS011;26324;52.040;11.528;2023-07-20T02:11:08;11.10;;;1.98;;
40621;SDS011;26324;52.040;11.528;2023-07-20T02:13:36;6.80;;;2.10;;
40621;SDS011;26324;52.040;11.528;2023-07-20T02:16:04;11.13;;;2.15;;
40621;SDS011;26324;52.040;11.528;2023-07-20T02:18:32;8.30;;;2.35;;
40621;SDS011;26324;52.040;11.528;2023-07-20T02:21:00;11.25;;;2.00;;
40621;SDS011;26324;52.040;11.528;2023-07-20T02:23:27;5.15;;;1.80;;
40621;SDS011;26324;52.040;11.528;2023-07-20T02:25:54;4.53;;;1.50;;
40621;SDS011;26324;52.040;11.528;2023-07-20T02:28:22;5.80;;;1.92;;
40621;SDS011;26324;52.040;11.528;2023-07-20T02:33:21;2.88;;;1.50;;
40621;SDS011;26324;52.040;11.528;2023-07-20T02:35:48;8.30;;;1.90;;
40621;SDS011;26324;52.040;11.528;2023-07-20T02:38:15;4.28;;;2.10;;
40621;SDS011;26324;52.040;11.528;2023-07-20T02:40:43;4.32;;;1.70;;
40621;SDS011;26324;52.040;11.528;2023-07-20T02:43:10;2.65;;;1.50;;
40621;SDS011;26324;52.040;11.528;2023-07-20T02:45:41;4.00;;;1.77;;
40621;SDS011;26324;52.040;11.528;2023-07-20T02:48:11;6.82;;;2.20;;
40621;SDS011;26324;52.040;11.528;2023-07-20T02:50:40;6.32;;;2.05;;
40621;SDS011;26324;52.040;11.528;2023-07-20T02:53:07;5.00;;;1.80;;
40621;SDS011;26324;52.040;11.528;2023-07-20T02:55:34;4.43;;;1.73;;
40621;SDS011;26324;52.040;11.528;2023-07-20T02:58:01;4.47;;;1.92;;
40621;SDS011;26324;52.040;11.528;2023-07-20T03:00:29;2.22;;;1.60;;
40621;SDS011;26324;52.040;11.528;2023-07-20T03:02:56;7.00;;;2.03;;
40621;SDS011;26324;52.040;11.528;2023-07-20T03:05:24;5.70;;;1.42;;
40621;SDS011;26324;52.040;11.528;2023-07-20T03:07:55;3.22;;;1.60;;
40621;SDS011;26324;52.040;11.528;2023-07-20T03:10:23;3.97;;;2.10;;
40621;SDS011;26324;52.040;11.528;2023-07-20T03:12:50;4.05;;;1.77;;
40621;SDS011;26324;52.040;11.528;2023-07-20T03:15:17;4.07;;;2.05;;
40621;SDS011;26324;52.040;11.528;2023-07-20T03:17:45;1.88;;;1.55;;
40621;SDS011;26324;52.040;11.528;2023-07-20T03:20:12;3.90;;;1.90;;
40621;SDS011;26324;52.040;11.528;2023-07-20T03:22:40;5.45;;;1.85;;
40621;SDS011;26324;52.040;11.528;2023-07-20T03:25:08;4.60;;;1.73;;
40621;SDS011;26324;52.040;11.528;2023-07-20T03:27:40;3.03;;;1.70;;
40621;SDS011;26324;52.040;11.528;2023-07-20T03:30:07;9.90;;;2.40;;
40621;SDS011;26324;52.040;11.528;2023-07-20T03:32:44;6.13;;;2.55;;
40621;SDS011;26324;52.040;11.528;2023-07-20T03:35:12;3.13;;;1.67;;
40621;SDS011;26324;52.040;11.528;2023-07-20T03:37:39;3.45;;;2.25;;
40621;SDS011;26324;52.040;11.528;2023-07-20T03:40:07;6.47;;;2.40;;
40621;SDS011;26324;52.040;11.528;2023-07-20T03:42:35;9.07;;;2.03;;
40621;SDS011;26324;52.040;11.528;2023-07-20T03:45:03;5.88;;;1.85;;
40621;SDS011;26324;52.040;11.528;2023-07-20T03:47:31;3.80;;;2.03;;
40621;SDS011;26324;52.040;11.528;2023-07-20T03:49:59;2.85;;;1.90;;
40621;SDS011;26324;52.040;11.528;2023-07-20T03:52:26;6.60;;;2.25;;
40621;SDS011;26324;52.040;11.528;2023-07-20T03:54:54;6.00;;;2.08;;
40621;SDS011;26324;52.040;11.528;2023-07-20T03:57:21;7.93;;;2.13;;
40621;SDS011;26324;52.040;11.528;2023-07-20T03:59:49;5.55;;;2.05;;
40621;SDS011;26324;52.040;11.528;2023-07-20T04:02:17;4.68;;;2.03;;
40621;SDS011;26324;52.040;11.528;2023-07-20T04:04:44;6.75;;;2.58;;
40621;SDS011;26324;52.040;11.528;2023-07-20T04:07:12;9.40;;;2.28;;
40621;SDS011;26324;52.040;11.528;2023-07-20T04:09:41;5.80;;;2.03;;
40621;SDS011;26324;52.040;11.528;2023-07-20T04:12:09;6.20;;;1.88;;
40621;SDS011;26324;52.040;11.528;2023-07-20T04:14:36;7.20;;;2.30;;
40621;SDS011;26324;52.040;11.528;2023-07-20T04:17:04;6.50;;;1.98;;
40621;SDS011;26324;52.040;11.528;2023-07-20T04:19:32;10.27;;;2.08;;
40621;SDS011;26324;52.040;11.528;2023-07-20T04:21:59;3.45;;;2.30;;
40621;SDS011;26324;52.040;11.528;2023-07-20T04:24:26;5.47;;;1.92;;
40621;SDS011;26324;52.040;11.528;2023-07-20T04:26:54;6.28;;;1.90;;
40621;SDS011;26324;52.040;11.528;2023-07-20T04:29:21;8.43;;;2.15;;
40621;SDS011;26324;52.040;11.528;2023-07-20T04:31:49;3.20;;;1.83;;
40621;SDS011;26324;52.040;11.528;2023-07-20T04:34:16;6.22;;;1.60;;
40621;SDS011;26324;52.040;11.528;2023-07-20T04:36:44;4.80;;;1.88;;
40621;SDS011;26324;52.040;11.528;2023-07-20T04:41:58;2.83;;;1.88;;
40621;SDS011;26324;52.040;11.528;2023-07-20T04:44:25;2.78;;;1.52;;
40621;SDS011;26324;52.040;11.528;2023-07-20T04:46:53;6.60;;;1.75;;
40621;SDS011;26324;52.040;11.528;2023-07-20T04:49:20;4.00;;;2.10;;
40621;SDS011;26324;52.040;11.528;2023-07-20T04:51:48;2.70;;;1.77;;
40621;SDS011;26324;52.040;11.528;2023-07-20T04:54:16;2.08;;;1.60;;
40621;SDS011;26324;52.040;11.528;2023-07-20T04:56:45;3.33;;;1.60;;
40621;SDS011;26324;52.040;11.528;2023-07-20T04:59:17;5.70;;;1.90;;
40621;SDS011;26324;52.040;11.528;2023-07-20T05:01:45;7.25;;;1.50;;
40621;SDS011;26324;52.040;11.528;2023-07-20T05:04:13;5.22;;;1.70;;
40621;SDS011;26324;52.040;11.528;2023-07-20T05:06:44;4.32;;;1.60;;
40621;SDS011;26324;52.040;11.528;2023-07-20T05:09:13;1.75;;;1.35;;
40621;SDS011;26324;52.040;11.528;2023-07-20T05:11:40;2.92;;;1.55;;
40621;SDS011;26324;52.040;11.528;2023-07-20T05:14:08;2.13;;;1.30;;
40621;SDS011;26324;52.040;11.528;2023-07-20T05:16:36;6.38;;;1.40;;
40621;SDS011;26324;52.040;11.528;2023-07-20T05:19:06;4.07;;;1.45;;
40621;SDS011;26324;52.040;11.528;2023-07-20T05:21:34;2.50;;;1.52;;
40621;SDS011;26324;52.040;11.528;2023-07-20T05:24:02;3.15;;;1.27;;
40621;SDS011;26324;52.040;11.528;2023-07-20T05:26:29;3.70;;;1.30;;
40621;SDS011;26324;52.040;11.528;2023-07-20T05:28:57;1.88;;;1.30;;
40621;SDS011;26324;52.040;11.528;2023-07-20T05:31:24;1.40;;;1.05;;
40621;SDS011;26324;52.040;11.528;2023-07-20T05:33:53;3.65;;;1.67;;
40621;SDS011;26324;52.040;11.528;2023-07-20T05:36:20;2.40;;;1.40;;
40621;SDS011;26324;52.040;11.528;2023-07-20T05:38:48;1.88;;;1.40;;
40621;SDS011;26324;52.040;11.528;2023-07-20T05:41:16;1.83;;;1.02;;
40621;SDS011;26324;52.040;11.528;2023-07-20T05:43:44;2.28;;;1.08;;
40621;SDS011;26324;52.040;11.528;2023-07-20T05:46:11;3.50;;;1.13;;
40621;SDS011;26324;52.040;11.528;2023-07-20T05:48:39;1.30;;;0.90;;
40621;SDS011;26324;52.040;11.528;2023-07-20T05:51:06;2.35;;;1.30;;
40621;SDS011;26324;52.040;11.528;2023-07-20T05:53:35;3.08;;;1.10;;
40621;SDS011;26324;52.040;11.528;2023-07-20T05:58:30;3.83;;;0.85;;
40621;SDS011;26324;52.040;11.528;2023-07-20T06:00:58;1.88;;;1.33;;
40621;SDS011;26324;52.040;11.528;2023-07-20T06:03:26;4.00;;;1.15;;
40621;SDS011;26324;52.040;11.528;2023-07-20T06:05:58;2.25;;;1.00;;
40621;SDS011;26324;52.040;11.528;2023-07-20T06:08:28;1.10;;;0.80;;
40621;SDS011;26324;52.040;11.528;2023-07-20T06:10:56;1.90;;;0.93;;
40621;SDS011;26324;52.040;11.528;2023-07-20T06:13:24;1.42;;;0.80;;
40621;SDS011;26324;52.040;11.528;2023-07-20T06:15:52;1.67;;;0.75;;
40621;SDS011;26324;52.040;11.528;2023-07-20T06:18:22;1.33;;;1.00;;
40621;SDS011;26324;52.040;11.528;2023-07-20T06:20:50;3.20;;;1.27;;
40621;SDS011;26324;52.040;11.528;2023-07-20T06:23:18;1.98;;;0.73;;
40621;SDS011;26324;52.040;11.528;2023-07-20T06:25:46;1.17;;;0.88;;
40621;SDS011;26324;52.040;11.528;2023-07-20T06:28:15;2.25;;;1.00;;
40621;SDS011;26324;52.040;11.528;2023-07-20T06:30:42;2.75;;;1.15;;
40621;SDS011;26324;52.040;11.528;2023-07-20T06:33:10;1.83;;;0.95;;
40621;SDS011;26324;52.040;11.528;2023-07-20T06:35:40;1.00;;;0.70;;
40621;SDS011;26324;52.040;11.528;2023-07-20T06:38:09;1.55;;;0.75;;
40621;SDS011;26324;52.040;11.528;2023-07-20T06:40:40;2.47;;;0.80;;
40621;SDS011;26324;52.040;11.528;2023-07-20T06:45:41;1.92;;;0.80;;
40621;SDS011;26324;52.040;11.528;2023-07-20T06:48:09;2.22;;;0.82;;
40621;SDS011;26324;52.040;11.528;2023-07-20T06:50:40;1.42;;;0.73;;
40621;SDS011;26324;52.040;11.528;2023-07-20T06:53:09;0.68;;;0.47;;
40621;SDS011;26324;52.040;11.528;2023-07-20T06:58:10;1.08;;;0.52;;
40621;SDS011;26324;52.040;11.528;2023-07-20T07:00:38;0.40;;;0.30;;
40621;SDS011;26324;52.040;11.528;2023-07-20T07:03:06;0.47;;;0.30;;
40621;SDS011;26324;52.040;11.528;2023-07-20T07:05:35;1.05;;;0.60;;
40621;SDS011;26324;52.040;11.528;2023-07-20T07:08:04;2.15;;;0.70;;
40621;SDS011;26324;52.040;11.528;2023-07-20T07:10:32;0.75;;;0.50;;
40621;SDS011;26324;52.040;11.528;2023-07-20T07:13:07;0.43;;;0.35;;
40621;SDS011;26324;52.040;11.528;2023-07-20T07:15:34;0.50;;;0.30;;
40621;SDS011;26324;52.040;11.528;2023-07-20T07:18:04;0.75;;;0.30;;
40621;SDS011;26324;52.040;11.528;2023-07-20T07:20:32;0.80;;;0.32;;
40621;SDS011;26324;52.040;11.528;2023-07-20T07:22:59;1.50;;;0.45;;
40621;SDS011;26324;52.040;11.528;2023-07-20T07:25:27;0.25;;;0.20;;
40621;SDS011;26324;52.040;11.528;2023-07-20T07:27:55;1.55;;;0.40;;
40621;SDS011;26324;52.040;11.528;2023-07-20T07:30:22;1.48;;;0.35;;
40621;SDS011;26324;52.040;11.528;2023-07-20T07:32:57;1.42;;;0.10;;
40621;SDS011;26324;52.040;11.528;2023-07-20T07:35:24;0.68;;;0.32;;
40621;SDS011;26324;52.040;11.528;2023-07-20T07:37:52;0.28;;;0.20;;
40621;SDS011;26324;52.040;11.528;2023-07-20T07:40:39;0.30;;;0.30;;
40621;SDS011;26324;52.040;11.528;2023-07-20T07:43:07;0.63;;;0.30;;
40621;SDS011;26324;52.040;11.528;2023-07-20T07:48:04;0.40;;;0.30;;
40621;SDS011;26324;52.040;11.528;2023-07-20T07:50:33;0.68;;;0.22;;
40621;SDS011;26324;52.040;11.528;2023-07-20T07:53:01;0.45;;;0.32;;
40621;SDS011;26324;52.040;11.528;2023-07-20T07:55:30;0.73;;;0.50;;
40621;SDS011;26324;52.040;11.528;2023-07-20T07:57:57;1.27;;;0.32;;
40621;SDS011;26324;52.040;11.528;2023-07-20T08:00:25;0.47;;;0.30;;
40621;SDS011;26324;52.040;11.528;2023-07-20T08:02:53;0.60;;;0.40;;
40621;SDS011;26324;52.040;11.528;2023-07-20T08:05:21;0.50;;;0.30;;
40621;SDS011;26324;52.040;11.528;2023-07-20T08:07:49;0.52;;;0.30;;
40621;SDS011;26324;52.040;11.528;2023-07-20T08:10:16;0.43;;;0.20;;
40621;SDS011;26324;52.040;11.528;2023-07-20T08:12:44;0.43;;;0.30;;
40621;SDS011;26324;52.040;11.528;2023-07-20T08:15:11;0.50;;;0.30;;
40621;SDS011;26324;52.040;11.528;2023-07-20T08:17:41;0.65;;;0.35;;
40621;SDS011;26324;52.040;11.528;2023-07-20T08:20:12;0.55;;;0.30;;
40621;SDS011;26324;52.040;11.528;2023-07-20T08:22:41;0.43;;;0.20;;
40621;SDS011;26324;52.040;11.528;2023-07-20T08:25:08;1.27;;;0.47;;
40621;SDS011;26324;52.040;11.528;2023-07-20T08:27:36;1.67;;;0.38;;
40621;SDS011;26324;52.040;11.528;2023-07-20T08:30:04;1.58;;;0.60;;
40621;SDS011;26324;52.040;11.528;2023-07-20T08:35:01;1.20;;;0.30;;
40621;SDS011;26324;52.040;11.528;2023-07-20T08:37:29;1.13;;;0.40;;
40621;SDS011;26324;52.040;11.528;2023-07-20T08:39:56;0.88;;;0.32;;
40621;SDS011;26324;52.040;11.528;2023-07-20T08:42:24;0.50;;;0.30;;
40621;SDS011;26324;52.040;11.528;2023-07-20T08:44:52;0.85;;;0.50;;
40621;SDS011;26324;52.040;11.528;2023-07-20T08:47:21;0.68;;;0.50;;
40621;SDS011;26324;52.040;11.528;2023-07-20T08:49:51;0.70;;;0.60;;
40621;SDS011;26324;52.040;11.528;2023-07-20T08:52:21;0.73;;;0.50;;
40621;SDS011;26324;52.040;11.528;2023-07-20T08:54:48;1.20;;;0.60;;
40621;SDS011;26324;52.040;11.528;2023-07-20T08:57:17;0.98;;;0.80;;
40621;SDS011;26324;52.040;11.528;2023-07-20T08:59:46;1.73;;;0.80;;
40621;SDS011;26324;52.040;11.528;2023-07-20T09:02:16;1.98;;;0.93;;
40621;SDS011;26324;52.040;11.528;2023-07-20T09:04:45;3.70;;;1.38;;
40621;SDS011;26324;52.040;11.528;2023-07-20T09:07:13;4.25;;;1.98;;
40621;SDS011;26324;52.040;11.528;2023-07-20T09:09:42;1.55;;;1.30;;
40621;SDS011;26324;52.040;11.528;2023-07-20T09:12:15;4.35;;;1.88;;
40621;SDS011;26324;52.040;11.528;2023-07-20T09:14:44;2.58;;;1.63;;
40621;SDS011;26324;52.040;11.528;2023-07-20T09:17:14;1.90;;;1.50;;
40621;SDS011;26324;52.040;11.528;2023-07-20T09:19:47;3.28;;;1.58;;
40621;SDS011;26324;52.040;11.528;2023-07-20T09:22:15;1.92;;;1.65;;
40621;SDS011;26324;52.040;11.528;2023-07-20T09:24:44;2.15;;;1.80;;
40621;SDS011;26324;52.040;11.528;2023-07-20T09:27:12;2.38;;;1.60;;
40621;SDS011;26324;52.040;11.528;2023-07-20T09:29:47;2.10;;;1.60;;
40621;SDS011;26324;52.040;11.528;2023-07-20T09:32:19;1.98;;;1.10;;
40621;SDS011;26324;52.040;11.528;2023-07-20T09:34:52;2.15;;;1.35;;
40621;SDS011;26324;52.040;11.528;2023-07-20T09:37:23;3.70;;;1.20;;
40621;SDS011;26324;52.040;11.528;2023-07-20T09:39:52;1.05;;;0.57;;
40621;SDS011;26324;52.040;11.528;2023-07-20T09:42:23;4.00;;;1.00;;
40621;SDS011;26324;52.040;11.528;2023-07-20T09:44:55;1.50;;;0.77;;
40621;SDS011;26324;52.040;11.528;2023-07-20T09:49:57;2.60;;;0.95;;
40621;SDS011;26324;52.040;11.528;2023-07-20T09:52:30;1.27;;;1.00;;
40621;SDS011;26324;52.040;11.528;2023-07-20T09:55:02;2.10;;;0.88;;
40621;SDS011;26324;52.040;11.528;2023-07-20T09:57:30;0.88;;;0.52;;
40621;SDS011;26324;52.040;11.528;2023-07-20T10:00:00;0.80;;;0.70;;
40621;SDS011;26324;52.040;11.528;2023-07-20T10:02:41;1.00;;;0.60;;
40621;SDS011;26324;52.040;11.528;2023-07-20T10:05:11;1.10;;;0.43;;
40621;SDS011;26324;52.040;11.528;2023-07-20T10:07:45;0.50;;;0.50;;
40621;SDS011;26324;52.040;11.528;2023-07-20T10:10:18;0.35;;;0.35;;
40621;SDS011;26324;52.040;11.528;2023-07-20T10:12:47;0.65;;;0.22;;
40621;SDS011;26324;52.040;11.528;2023-07-20T10:18:14;0.20;;;0.20;;
40621;SDS011;26324;52.040;11.528;2023-07-20T10:20:42;0.32;;;0.30;;
40621;SDS011;26324;52.040;11.528;2023-07-20T10:23:16;0.50;;;0.40;;
40621;SDS011;26324;52.040;11.528;2023-07-20T10:25:44;0.57;;;0.40;;
40621;SDS011;26324;52.040;11.528;2023-07-20T10:28:13;0.57;;;0.30;;
40621;SDS011;26324;52.040;11.528;2023-07-20T10:30:42;0.73;;;0.20;;
40621;SDS011;26324;52.040;11.528;2023-07-20T10:33:11;0.52;;;0.28;;
40621;SDS011;26324;52.040;11.528;2023-07-20T10:35:55;0.52;;;0.38;;
40621;SDS011;26324;52.040;11.528;2023-07-20T10:41:16;2.00;;;0.52;;
40621;SDS011;26324;52.040;11.528;2023-07-20T10:43:46;0.40;;;0.30;;
40621;SDS011;26324;52.040;11.528;2023-07-20T10:46:16;0.50;;;0.38;;
40621;SDS011;26324;52.040;11.528;2023-07-20T10:49:12;0.38;;;0.20;;
40621;SDS011;26324;52.040;11.528;2023-07-20T10:51:45;0.40;;;0.10;;
40621;SDS011;26324;52.040;11.528;2023-07-20T10:56:57;0.38;;;0.15;;
40621;SDS011;26324;52.040;11.528;2023-07-20T10:59:46;0.57;;;0.20;;
40621;SDS011;26324;52.040;11.528;2023-07-20T11:02:17;0.38;;;0.20;;
40621;SDS011;26324;52.040;11.528;2023-07-20T11:04:47;0.20;;;0.15;;
40621;SDS011;26324;52.040;11.528;2023-07-20T11:07:17;0.55;;;0.30;;
40621;SDS011;26324;52.040;11.528;2023-07-20T11:12:40;0.60;;;0.20;;
40621;SDS011;26324;52.040;11.528;2023-07-20T11:15:08;0.43;;;0.17;;
40621;SDS011;26324;52.040;11.528;2023-07-20T11:17:36;0.30;;;0.20;;
40621;SDS011;26324;52.040;11.528;2023-07-20T11:20:05;0.30;;;0.10;;
40621;SDS011;26324;52.040;11.528;2023-07-20T11:22:36;0.20;;;0.15;;
40621;SDS011;26324;52.040;11.528;2023-07-20T11:25:03;0.43;;;0.20;;
40621;SDS011;26324;52.040;11.528;2023-07-20T11:27:32;0.20;;;0.20;;
40621;SDS011;26324;52.040;11.528;2023-07-20T11:29:59;1.00;;;0.30;;
40621;SDS011;26324;52.040;11.528;2023-07-20T11:32:26;0.20;;;0.15;;
40621;SDS011;26324;52.040;11.528;2023-07-20T11:34:54;0.20;;;0.10;;
40621;SDS011;26324;52.040;11.528;2023-07-20T11:37:21;0.38;;;0.20;;
40621;SDS011;26324;52.040;11.528;2023-07-20T11:39:50;0.40;;;0.20;;
40621;SDS011;26324;52.040;11.528;2023-07-20T11:42:23;0.68;;;0.20;;
40621;SDS011;26324;52.040;11.528;2023-07-20T11:44:53;0.60;;;0.25;;
40621;SDS011;26324;52.040;11.528;2023-07-20T11:47:20;0.65;;;0.13;;
40621;SDS011;26324;52.040;11.528;2023-07-20T11:49:48;0.20;;;0.10;;
40621;SDS011;26324;52.040;11.528;2023-07-20T11:52:22;0.43;;;0.20;;
40621;SDS011;26324;52.040;11.528;2023-07-20T11:54:50;0.47;;;0.28;;
40621;SDS011;26324;52.040;11.528;2023-07-20T11:57:19;0.85;;;0.22;;
40621;SDS011;26324;52.040;11.528;2023-07-20T11:59:56;0.40;;;0.28;;
40621;SDS011;26324;52.040;11.528;2023-07-20T12:02:28;0.35;;;0.17;;
40621;SDS011;26324;52.040;11.528;2023-07-20T12:04:57;0.80;;;0.20;;
40621;SDS011;26324;52.040;11.528;2023-07-20T12:07:26;0.50;;;0.32;;
40621;SDS011;26324;52.040;11.528;2023-07-20T12:10:08;0.35;;;0.28;;
40621;SDS011;26324;52.040;11.528;2023-07-20T12:12:38;0.65;;;0.38;;
40621;SDS011;26324;52.040;11.528;2023-07-20T12:17:57;1.58;;;0.30;;
40621;SDS011;26324;52.040;11.528;2023-07-20T12:20:28;0.40;;;0.20;;
40621;SDS011;26324;52.040;11.528;2023-07-20T12:23:00;0.52;;;0.30;;
40621;SDS011;26324;52.040;11.528;2023-07-20T12:25:39;0.45;;;0.30;;
40621;SDS011;26324;52.040;11.528;2023-07-20T12:28:09;0.88;;;0.28;;
40621;SDS011;26324;52.040;11.528;2023-07-20T12:30:39;0.43;;;0.30;;
40621;SDS011;26324;52.040;11.528;2023-07-20T12:33:08;0.60;;;0.30;;
40621;SDS011;26324;52.040;11.528;2023-07-20T12:35:36;0.20;;;0.20;;
40621;SDS011;26324;52.040;11.528;2023-07-20T12:38:04;0.50;;;0.20;;
40621;SDS011;26324;52.040;11.528;2023-07-20T12:40:32;0.60;;;0.20;;
40621;SDS011;26324;52.040;11.528;2023-07-20T12:42:59;1.25;;;0.20;;
40621;SDS011;26324;52.040;11.528;2023-07-20T12:45:27;0.77;;;0.43;;
40621;SDS011;26324;52.040;11.528;2023-07-20T12:47:55;0.22;;;0.20;;
40621;SDS011;26324;52.040;11.528;2023-07-20T12:50:23;0.35;;;0.30;;
40621;SDS011;26324;52.040;11.528;2023-07-20T12:52:50;0.40;;;0.20;;
40621;SDS011;26324;52.040;11.528;2023-07-20T12:55:18;0.30;;;0.30;;
40621;SDS011;26324;52.040;11.528;2023-07-20T12:57:46;0.65;;;0.30;;
40621;SDS011;26324;52.040;11.528;2023-07-20T13:00:14;2.05;;;0.30;;
40621;SDS011;26324;52.040;11.528;2023-07-20T13:02:43;0.35;;;0.32;;
40621;SDS011;26324;52.040;11.528;2023-07-20T13:05:10;0.38;;;0.28;;
40621;SDS011;26324;52.040;11.528;2023-07-20T13:07:38;0.60;;;0.20;;
40621;SDS011;26324;52.040;11.528;2023-07-20T13:10:09;0.40;;;0.30;;
40621;SDS011;26324;52.040;11.528;2023-07-20T13:15:06;0.68;;;0.20;;
40621;SDS011;26324;52.040;11.528;2023-07-20T13:17:35;0.45;;;0.32;;
40621;SDS011;26324;52.040;11.528;2023-07-20T13:20:03;0.95;;;0.47;;
40621;SDS011;26324;52.040;11.528;2023-07-20T13:22:33;0.32;;;0.30;;
40621;SDS011;26324;52.040;11.528;2023-07-20T13:25:01;1.77;;;0.50;;
40621;SDS011;26324;52.040;11.528;2023-07-20T13:27:29;0.75;;;0.45;;
40621;SDS011;26324;52.040;11.528;2023-07-20T13:29:59;0.45;;;0.40;;
40621;SDS011;26324;52.040;11.528;2023-07-20T13:32:36;0.40;;;0.30;;
40621;SDS011;26324;52.040;11.528;2023-07-20T13:35:07;0.40;;;0.40;;
40621;SDS011;26324;52.040;11.528;2023-07-20T13:37:34;0.73;;;0.40;;
40621;SDS011;26324;52.040;11.528;2023-07-20T13:40:02;0.73;;;0.50;;
40621;SDS011;26324;52.040;11.528;2023-07-20T13:42:33;0.70;;;0.50;;
40621;SDS011;26324;52.040;11.528;2023-07-20T13:45:01;1.05;;;0.50;;
40621;SDS011;26324;52.040;11.528;2023-07-20T13:47:32;0.65;;;0.60;;
40621;SDS011;26324;52.040;11.528;2023-07-20T13:50:02;0.73;;;0.40;;
40621;SDS011;26324;52.040;11.528;2023-07-20T13:55:01;1.00;;;0.40;;
40621;SDS011;26324;52.040;11.528;2023-07-20T13:57:31;0.70;;;0.25;;
40621;SDS011;26324;52.040;11.528;2023-07-20T14:00:03;0.40;;;0.30;;
40621;SDS011;26324;52.040;11.528;2023-07-20T14:02:37;0.40;;;0.30;;
40621;SDS011;26324;52.040;11.528;2023-07-20T14:05:08;1.88;;;0.40;;
40621;SDS011;26324;52.040;11.528;2023-07-20T14:07:39;0.47;;;0.47;;
40621;SDS011;26324;52.040;11.528;2023-07-20T14:10:07;0.40;;;0.40;;
40621;SDS011;26324;52.040;11.528;2023-07-20T14:12:37;3.75;;;0.60;;
40621;SDS011;26324;52.040;11.528;2023-07-20T14:15:05;1.30;;;0.60;;
40621;SDS011;26324;52.040;11.528;2023-07-20T14:17:33;1.05;;;0.55;;
40621;SDS011;26324;52.040;11.528;2023-07-20T14:20:01;0.65;;;0.47;;
40621;SDS011;26324;52.040;11.528;2023-07-20T14:22:32;0.50;;;0.40;;
40621;SDS011;26324;52.040;11.528;2023-07-20T14:24:59;1.50;;;0.50;;
40621;SDS011;26324;52.040;11.528;2023-07-20T14:27:26;1.77;;;0.50;;
40621;SDS011;26324;52.040;11.528;2023-07-20T14:29:54;0.52;;;0.40;;
40621;SDS011;26324;52.040;11.528;2023-07-20T14:34:49;0.73;;;0.40;;
40621;SDS011;26324;52.040;11.528;2023-07-20T14:37:20;1.15;;;0.50;;
40621;SDS011;26324;52.040;11.528;2023-07-20T14:39:48;0.77;;;0.50;;
40621;SDS011;26324;52.040;11.528;2023-07-20T14:42:15;0.77;;;0.43;;
40621;SDS011;26324;52.040;11.528;2023-07-20T14:44:43;1.08;;;0.45;;
40621;SDS011;26324;52.040;11.528;2023-07-20T14:47:11;0.85;;;0.70;;
40621;SDS011;26324;52.040;11.528;2023-07-20T14:49:41;1.02;;;0.40;;
40621;SDS011;26324;52.040;11.528;2023-07-20T14:52:11;0.40;;;0.40;;
40621;SDS011;26324;52.040;11.528;2023-07-20T14:54:42;0.98;;;0.30;;
40621;SDS011;26324;52.040;11.528;2023-07-20T14:57:10;1.58;;;0.60;;
40621;SDS011;26324;52.040;11.528;2023-07-20T14:59:42;2.00;;;0.80;;
40621;SDS011;26324;52.040;11.528;2023-07-20T15:02:09;0.90;;;0.50;;
40621;SDS011;26324;52.040;11.528;2023-07-20T15:04:36;0.63;;;0.40;;
40621;SDS011;26324;52.040;11.528;2023-07-20T15:07:04;1.75;;;0.40;;
40621;SDS011;26324;52.040;11.528;2023-07-20T15:09:32;0.93;;;0.50;;
40621;SDS011;26324;52.040;11.528;2023-07-20T15:12:01;0.38;;;0.30;;
40621;SDS011;26324;52.040;11.528;2023-07-20T15:14:28;0.50;;;0.38;;
40621;SDS011;26324;52.040;11.528;2023-07-20T15:16:57;0.55;;;0.40;;
40621;SDS011;26324;52.040;11.528;2023-07-20T15:19:25;0.70;;;0.28;;
40621;SDS011;26324;52.040;11.528;2023-07-20T15:21:53;1.20;;;0.40;;
40621;SDS011;26324;52.040;11.528;2023-07-20T15:24:21;0.77;;;0.47;;
40621;SDS011;26324;52.040;11.528;2023-07-20T15:26:48;0.70;;;0.50;;
40621;SDS011;26324;52.040;11.528;2023-07-20T15:29:15;0.47;;;0.30;;
40621;SDS011;26324;52.040;11.528;2023-07-20T15:31:46;0.50;;;0.40;;
40621;SDS011;26324;52.040;11.528;2023-07-20T15:34:16;0.55;;;0.30;;
40621;SDS011;26324;52.040;11.528;2023-07-20T15:36:44;1.13;;;0.32;;
40621;SDS011;26324;52.040;11.528;2023-07-20T15:39:12;3.08;;;0.40;;